Time;durP1;ratioP1;P1;durP2;ratioP2;P2;SDS_P1;SDS_P2;PMS_P1;PMS_P2;Temp;Humidity;BMP_temperature;BMP_pressure;BME280_temperature;BME280_humidity;BME280_pressure;Samples;Min_cycle;Max_cycle;Signal;HPM_P1;HPM_P2
2021/06/11 00:00:14;;;;;;;2.70;1.60;;;;;;;13.02;75.86;93362.81;5080765;28;20097;-41
2021/06/11 00:02:40;;;;;;;3.13;2.42;;;;;;;13.08;76.42;93371.66;5078676;28;20020;-40
2021/06/11 00:05:07;;;;;;;2.65;1.95;;;;;;;13.10;76.49;93371.84;5080033;28;20016;-40
2021/06/11 00:07:33;;;;;;;3.30;1.65;;;;;;;13.16;76.31;93374.38;5079977;28;20107;-42
2021/06/11 00:09:59;;;;;;;3.42;1.88;;;;;;;13.10;76.12;93371.84;5078605;28;20035;-41
2021/06/11 00:12:25;;;;;;;1.70;1.50;;;;;;;13.01;76.24;93361.34;5080096;28;20420;-41
2021/06/11 00:14:50;;;;;;;3.10;1.60;;;;;;;12.90;76.78;93375.66;5079329;28;20020;-41
2021/06/11 00:17:16;;;;;;;1.60;1.48;;;;;;;12.87;75.83;93368.47;5077273;28;20012;-39
2021/06/11 00:19:41;;;;;;;2.45;1.50;;;;;;;12.79;75.91;93376.84;5080161;28;20024;-41
2021/06/11 00:22:07;;;;;;;3.10;1.63;;;;;;;12.82;75.05;93372.22;5079220;28;20016;-40
2021/06/11 00:24:32;;;;;;;2.20;1.88;;;;;;;12.67;76.32;93370.28;5080096;28;20028;-40
2021/06/11 00:26:57;;;;;;;2.00;1.80;;;;;;;12.79;75.71;93373.34;5077875;28;20028;-39
2021/06/11 00:29:23;;;;;;;1.67;1.50;;;;;;;12.52;77.03;93378.69;5080101;28;20085;-41
2021/06/11 00:31:48;;;;;;;3.40;1.98;;;;;;;12.54;78.84;93367.78;5079442;28;20405;-39
2021/06/11 00:34:14;;;;;;;2.47;1.95;;;;;;;12.56;79.07;93376.25;5078192;28;20393;-40
2021/06/11 00:36:39;;;;;;;7.65;2.58;;;;;;;12.71;79.13;93375.44;5080072;28;20015;-41
2021/06/11 00:39:05;;;;;;;4.38;2.33;;;;;;;12.73;78.38;93378.38;5081059;28;20111;-40
2021/06/11 00:41:31;;;;;;;2.38;1.92;;;;;;;12.74;77.78;93388.16;5089571;28;20024;-41
2021/06/11 00:43:57;;;;;;;3.45;2.50;;;;;;;12.81;76.96;93379.06;5074601;28;20017;-39
2021/06/11 00:46:22;;;;;;;3.25;2.88;;;;;;;12.70;77.48;93379.50;5069516;28;20028;-40
2021/06/11 00:48:48;;;;;;;2.83;1.95;;;;;;;12.66;77.83;93377.13;5068319;28;20420;-41
2021/06/11 00:51:13;;;;;;;2.75;1.95;;;;;;;12.71;77.11;93376.16;5069351;28;20027;-39
2021/06/11 00:53:39;;;;;;;2.58;1.73;;;;;;;12.77;76.67;93368.38;5069872;28;20028;-44
2021/06/11 00:56:04;;;;;;;4.65;2.45;;;;;;;12.58;76.91;93376.44;5088163;28;20521;-44
2021/06/11 00:58:30;;;;;;;2.35;2.13;;;;;;;12.49;76.47;93370.78;5087866;28;20466;-43
2021/06/11 01:00:56;;;;;;;1.77;1.50;;;;;;;12.58;75.37;93359.81;5089727;28;20028;-43
2021/06/11 01:03:21;;;;;;;9.70;2.20;;;;;;;12.46;75.35;93366.34;5089608;28;20405;-42
2021/06/11 01:05:46;;;;;;;1.83;1.58;;;;;;;12.49;74.24;93363.22;5089758;28;20429;-44
2021/06/11 01:08:14;;;;;;;2.83;1.63;;;;;;;12.23;74.93;93365.75;5091555;28;20050;-42
2021/06/11 01:10:41;;;;;;;1.52;1.42;;;;;;;12.19;75.10;93357.84;5092114;28;20027;-42
2021/06/11 01:13:07;;;;;;;2.97;1.90;;;;;;;12.30;74.70;93356.69;5093623;28;20023;-42
2021/06/11 01:15:33;;;;;;;4.43;1.50;;;;;;;12.13;75.34;93354.53;5092361;28;20419;-42
2021/06/11 01:17:59;;;;;;;1.38;1.10;;;;;;;11.87;75.72;93343.97;5092010;28;20119;-42
2021/06/11 01:20:24;;;;;;;2.70;1.90;;;;;;;11.89;75.76;93361.47;5092184;28;20451;-43
2021/06/11 01:23:00;;;;;;;1.98;1.58;;;;;;;11.81;75.34;93355.25;5093390;28;20024;-42
2021/06/11 01:25:31;;;;;;;8.25;1.33;;;;;;;11.91;74.43;93369.94;5092000;28;20032;-42
2021/06/11 01:27:57;;;;;;;1.60;1.50;;;;;;;12.02;73.88;93375.06;5093460;28;20051;-42
2021/06/11 01:30:25;;;;;;;7.25;2.40;;;;;;;12.07;74.20;93368.59;5077520;28;20028;-42
2021/06/11 01:32:52;;;;;;;3.45;2.88;;;;;;;12.01;75.35;93361.81;5073013;28;20025;-43
2021/06/11 01:35:24;;;;;;;4.85;3.25;;;;;;;11.96;76.18;93365.50;5073766;28;20096;-41
2021/06/11 01:37:54;;;;;;;10.32;3.60;;;;;;;12.07;75.84;93368.59;5091934;28;20023;-45
2021/06/11 01:40:19;;;;;;;5.00;2.35;;;;;;;11.98;76.51;93376.75;5091840;28;20056;-41
2021/06/11 01:42:46;;;;;;;4.05;2.90;;;;;;;11.96;76.65;93369.00;5087819;28;20023;-42
2021/06/11 01:45:13;;;;;;;3.30;2.63;;;;;;;11.97;77.31;93367.72;5072797;28;20100;-41
2021/06/11 01:47:41;;;;;;;6.13;3.90;;;;;;;12.03;77.02;93373.78;5072129;28;20051;-42
2021/06/11 01:50:09;;;;;;;5.47;3.67;;;;;;;11.89;77.94;93364.25;5071112;28;20509;-46
2021/06/11 01:52:36;;;;;;;7.38;4.00;;;;;;;11.94;77.87;93357.03;5090853;28;20035;-42
2021/06/11 01:55:03;;;;;;;5.13;3.60;;;;;;;11.99;77.95;93353.31;5079139;28;20137;-46
2021/06/11 01:57:30;;;;;;;2.88;2.30;;;;;;;11.93;78.21;93359.06;5071957;28;20058;-43
2021/06/11 01:59:56;;;;;;;4.22;3.28;;;;;;;12.07;76.96;93362.31;5070995;28;20019;-43
2021/06/11 02:02:22;;;;;;;5.53;2.60;;;;;;;12.06;77.26;93355.34;5072418;28;20043;-44
2021/06/11 02:04:47;;;;;;;3.03;2.13;;;;;;;11.98;77.90;93349.06;5070787;28;20498;-43
2021/06/11 02:07:13;;;;;;;3.30;2.28;;;;;;;12.02;78.42;93344.63;5070786;28;20032;-40
2021/06/11 02:09:40;;;;;;;3.53;1.77;;;;;;;12.05;77.91;93346.28;5070714;28;20039;-42
2021/06/11 02:12:07;;;;;;;2.78;1.88;;;;;;;12.03;78.13;93348.13;5070971;28;20048;-41
2021/06/11 02:14:34;;;;;;;2.28;2.00;;;;;;;12.05;78.16;93349.06;5087751;28;20424;-41
2021/06/11 02:17:00;;;;;;;3.10;1.77;;;;;;;12.14;78.30;93354.00;5091157;28;20454;-40
2021/06/11 02:19:26;;;;;;;2.85;2.28;;;;;;;12.23;77.32;93357.44;5090677;28;20023;-39
2021/06/11 02:21:51;;;;;;;3.92;2.80;;;;;;;12.34;77.05;93355.00;5090838;28;20099;-40
2021/06/11 02:24:17;;;;;;;3.17;2.15;;;;;;;12.15;78.26;93351.94;5090873;28;20020;-40
2021/06/11 02:26:43;;;;;;;4.28;2.40;;;;;;;12.06;77.68;93342.22;5091953;28;20484;-40
2021/06/11 02:29:10;;;;;;;2.50;2.00;;;;;;;12.08;77.71;93350.69;5090582;28;20580;-42
2021/06/11 02:31:35;;;;;;;2.63;2.40;;;;;;;12.27;76.49;93346.72;5091031;28;20016;-41
2021/06/11 02:34:01;;;;;;;2.22;1.85;;;;;;;12.15;76.71;93338.84;5091669;28;20085;-39
2021/06/11 02:36:27;;;;;;;2.63;1.75;;;;;;;12.02;77.53;93355.69;5079555;28;20023;-40
2021/06/11 02:38:53;;;;;;;4.45;2.90;;;;;;;11.99;78.11;93345.78;5071232;28;20036;-44
2021/06/11 02:41:20;;;;;;;2.15;1.52;;;;;;;12.11;78.81;93352.34;5071347;28;20047;-40
2021/06/11 02:43:48;;;;;;;1.70;1.50;;;;;;;12.07;78.69;93340.94;5069998;28;20035;-40
2021/06/11 02:46:45;;;;;;;3.97;2.38;;;;;;;12.11;78.14;93346.81;5071134;28;20029;-42
2021/06/11 02:49:12;;;;;;;2.10;1.70;;;;;;;12.18;77.79;93345.28;5049263;28;20112;-39
2021/06/11 02:51:42;;;;;;;2.63;1.80;;;;;;;12.22;77.12;93351.19;5071413;28;20032;-41
2021/06/11 02:54:13;;;;;;;1.38;1.27;;;;;;;12.13;78.31;93337.94;5074450;28;20108;-45
2021/06/11 02:56:44;;;;;;;2.63;2.30;;;;;;;12.16;78.48;93334.78;5089731;28;20046;-44
2021/06/11 02:59:16;;;;;;;4.07;2.83;;;;;;;12.13;78.57;93332.41;5090178;28;20024;-43
2021/06/11 03:01:45;;;;;;;4.07;3.08;;;;;;;12.18;78.72;93340.50;5089955;28;20035;-43
2021/06/11 03:04:11;;;;;;;5.32;2.85;;;;;;;12.08;78.72;93342.38;5091039;28;20024;-41
2021/06/11 03:06:37;;;;;;;3.65;2.55;;;;;;;12.21;78.14;93344.19;5090922;28;20028;-43
2021/06/11 03:09:08;;;;;;;2.05;1.60;;;;;;;12.26;76.79;93334.91;5088366;28;20513;-45
2021/06/11 03:11:39;;;;;;;2.47;2.15;;;;;;;12.28;76.77;93346.16;5071129;28;20029;-44
2021/06/11 03:14:05;;;;;;;2.30;2.10;;;;;;;12.24;77.24;93339.53;5069578;28;20024;-45
2021/06/11 03:16:31;;;;;;;1.88;1.50;;;;;;;12.17;77.23;93341.78;5069429;28;20116;-43
2021/06/11 03:19:06;;;;;;;2.60;2.08;;;;;;;12.11;78.13;93337.75;5070704;28;20111;-44
2021/06/11 03:21:35;;;;;;;3.03;1.83;;;;;;;12.18;78.14;93345.28;5070564;28;20123;-44
2021/06/11 03:24:15;;;;;;;4.60;2.03;;;;;;;12.26;78.09;93350.81;5070807;28;20028;-46
2021/06/11 03:26:46;;;;;;;2.97;2.10;;;;;;;12.21;78.18;93343.44;5070661;28;20048;-43
2021/06/11 03:29:13;;;;;;;2.10;1.85;;;;;;;12.22;78.84;93350.44;5069167;28;20032;-42
2021/06/11 03:31:46;;;;;;;3.08;2.15;;;;;;;12.26;78.28;93340.44;5068761;28;20421;-43
2021/06/11 03:34:17;;;;;;;2.15;1.95;;;;;;;12.33;77.83;93339.69;5070641;28;20074;-42
2021/06/11 03:36:43;;;;;;;1.95;1.75;;;;;;;12.31;78.22;93344.28;5083157;28;20400;-44
2021/06/11 03:39:15;;;;;;;3.63;2.95;;;;;;;12.23;78.44;93349.88;5090774;28;20052;-43
2021/06/11 03:41:42;;;;;;;13.68;8.88;;;;;;;12.13;79.57;93352.50;5089284;28;20032;-44
2021/06/11 03:44:10;;;;;;;7.80;6.00;;;;;;;12.26;79.30;93356.34;5089134;28;20024;-44
2021/06/11 03:46:40;;;;;;;10.02;6.75;;;;;;;12.30;78.99;93351.88;5090337;28;20016;-45
2021/06/11 03:49:07;;;;;;;6.97;4.88;;;;;;;12.42;78.46;93366.00;5089048;28;20038;-42
2021/06/11 03:51:33;;;;;;;5.93;4.43;;;;;;;12.55;78.20;93360.94;5090673;28;20024;-42
2021/06/11 03:53:58;;;;;;;5.30;3.75;;;;;;;12.64;78.56;93367.91;5085812;28;20525;-42
2021/06/11 03:56:25;;;;;;;4.78;3.33;;;;;;;12.67;78.42;93364.00;5067980;28;20036;-42
2021/06/11 03:58:51;;;;;;;2.75;2.55;;;;;;;12.76;77.82;93363.38;5068566;28;20540;-44
2021/06/11 04:01:24;;;;;;;2.45;2.25;;;;;;;12.74;77.59;93363.22;5068576;28;20551;-42
2021/06/11 04:03:50;;;;;;;2.28;2.05;;;;;;;12.79;77.49;93365.03;5068533;28;20039;-43
2021/06/11 04:06:50;;;;;;;3.17;2.33;;;;;;;12.79;77.31;93368.56;5078872;28;20028;-42
2021/06/11 04:09:19;;;;;;;2.10;1.50;;;;;;;12.78;78.13;93369.84;5076594;28;20110;-42
2021/06/11 04:12:10;;;;;;;3.07;1.60;;;;;;;12.94;78.12;93373.22;5088982;28;20035;-44
2021/06/11 04:14:39;;;;;;;1.92;1.83;;;;;;;12.98;77.88;93362.47;5085524;28;20043;-42
2021/06/11 04:17:09;;;;;;;3.25;2.10;;;;;;;13.07;77.40;93355.59;5088354;28;20024;-42
2021/06/11 04:19:47;;;;;;;2.17;1.98;;;;;;;13.19;76.84;93362.88;5090013;28;20023;-41
2021/06/11 04:22:14;;;;;;;3.03;1.90;;;;;;;13.32;76.83;93368.13;5088407;28;20027;-41
2021/06/11 04:24:42;;;;;;;4.72;2.13;;;;;;;13.39;76.56;93375.66;5089941;28;20448;-41
2021/06/11 04:27:08;;;;;;;2.72;1.85;;;;;;;13.31;77.14;93374.25;5089732;28;20020;-41
2021/06/11 04:29:35;;;;;;;1.77;1.67;;;;;;;13.31;76.56;93366.66;5088378;28;20059;-41
2021/06/11 04:32:00;;;;;;;2.83;2.00;;;;;;;13.23;76.42;93368.75;5088675;28;20027;-46
2021/06/11 04:34:26;;;;;;;1.83;1.73;;;;;;;13.23;76.54;93379.13;5089456;28;20442;-41
2021/06/11 04:36:52;;;;;;;2.30;2.05;;;;;;;13.26;76.90;93386.28;5072525;28;20020;-41
2021/06/11 04:39:17;;;;;;;2.10;1.90;;;;;;;13.28;77.22;93386.47;5068098;28;20514;-41
2021/06/11 04:41:43;;;;;;;3.22;2.78;;;;;;;13.41;76.55;93391.72;5069406;28;20020;-40
2021/06/11 04:44:08;;;;;;;3.75;2.22;;;;;;;13.13;75.64;93354.06;5069063;28;20557;-42
2021/06/11 04:46:34;;;;;;;2.45;2.00;;;;;;;13.17;77.07;93387.66;5069115;28;20093;-41
2021/06/11 04:49:00;;;;;;;2.25;1.80;;;;;;;13.24;77.54;93394.44;5069375;28;20031;-41
2021/06/11 04:51:26;;;;;;;2.35;2.15;;;;;;;13.22;77.72;93402.59;5069537;28;20017;-40
2021/06/11 04:53:51;;;;;;;3.03;1.70;;;;;;;13.23;77.90;93398.53;5071838;28;20465;-40
2021/06/11 04:56:17;;;;;;;2.33;2.10;;;;;;;13.29;77.84;93396.25;5089153;28;20036;-41
2021/06/11 04:58:43;;;;;;;3.03;2.28;;;;;;;13.25;78.34;93388.34;5089130;28;20036;-41
2021/06/11 05:01:09;;;;;;;2.50;1.95;;;;;;;13.29;78.35;93391.47;5089597;28;20032;-40
2021/06/11 05:03:35;;;;;;;2.17;1.70;;;;;;;13.26;78.58;93403.69;5070940;28;20027;-44
2021/06/11 05:06:01;;;;;;;4.50;2.70;;;;;;;13.33;78.53;93400.09;5069187;28;20029;-40
2021/06/11 05:08:27;;;;;;;6.20;2.33;;;;;;;13.50;78.80;93405.69;5068895;28;20033;-43
2021/06/11 05:10:53;;;;;;;4.47;2.90;;;;;;;13.64;78.23;93411.66;5069027;28;20032;-43
2021/06/11 05:13:19;;;;;;;3.40;2.70;;;;;;;13.81;77.88;93397.78;5069299;28;20532;-42
2021/06/11 05:15:44;;;;;;;1.88;1.67;;;;;;;13.95;76.79;93396.16;5069013;28;20111;-40
2021/06/11 05:18:10;;;;;;;2.25;2.00;;;;;;;14.16;76.50;93395.75;5068680;28;20032;-39
2021/06/11 05:20:38;;;;;;;3.08;2.55;;;;;;;14.29;76.15;93398.91;5079344;28;20028;-44
2021/06/11 05:23:03;;;;;;;5.30;1.85;;;;;;;14.38;75.40;93403.81;5089506;28;20024;-45
2021/06/11 05:25:29;;;;;;;3.03;2.40;;;;;;;14.51;75.28;93407.56;5088861;28;20055;-43
2021/06/11 05:27:54;;;;;;;3.17;2.88;;;;;;;14.63;75.39;93406.44;5088866;28;20020;-42
2021/06/11 05:30:20;;;;;;;3.00;2.30;;;;;;;14.66;75.51;93410.13;5087401;28;20089;-42
2021/06/11 05:32:46;;;;;;;2.50;2.15;;;;;;;14.84;75.52;93409.47;5088895;28;20088;-44
2021/06/11 05:35:12;;;;;;;3.00;2.60;;;;;;;15.02;75.09;93405.34;5086905;28;20031;-42
2021/06/11 05:37:38;;;;;;;3.78;2.65;;;;;;;15.17;74.95;93405.09;5068807;28;20096;-43
2021/06/11 05:40:04;;;;;;;3.20;2.65;;;;;;;15.32;74.93;93409.69;5068871;28;20120;-43
2021/06/11 05:42:30;;;;;;;4.53;3.15;;;;;;;15.36;74.93;93414.81;5068689;28;20017;-43
2021/06/11 05:44:55;;;;;;;2.75;2.55;;;;;;;15.42;74.29;93410.44;5068601;28;20403;-42
2021/06/11 05:47:21;;;;;;;2.28;2.08;;;;;;;15.33;73.50;93410.41;5066960;28;20102;-45
2021/06/11 05:49:46;;;;;;;2.15;1.75;;;;;;;15.36;73.60;93407.19;5086650;28;20108;-41
2021/06/11 05:52:12;;;;;;;2.13;1.92;;;;;;;15.47;74.08;93417.06;5088700;28;20561;-41
2021/06/11 05:54:37;;;;;;;3.20;2.85;;;;;;;15.39;74.96;93416.44;5073099;28;20024;-43
2021/06/11 05:57:03;;;;;;;3.08;2.60;;;;;;;15.41;74.67;93411.75;5070588;28;20119;-42
2021/06/11 05:59:28;;;;;;;7.45;2.53;;;;;;;15.49;73.93;93417.22;5081565;28;20047;-42
2021/06/11 06:01:54;;;;;;;3.65;2.15;;;;;;;15.52;74.22;93408.47;5088498;28;20028;-45
2021/06/11 06:04:19;;;;;;;2.47;2.03;;;;;;;15.59;74.51;93413.13;5085100;28;20032;-46
2021/06/11 06:06:45;;;;;;;2.20;2.00;;;;;;;15.66;74.37;93419.91;5085202;28;20094;-46
2021/06/11 06:09:10;;;;;;;3.67;3.05;;;;;;;15.62;74.40;93414.78;5090698;28;20024;-43
2021/06/11 06:11:35;;;;;;;2.80;2.50;;;;;;;15.69;73.58;93413.16;5090954;28;20103;-44
2021/06/11 06:14:01;;;;;;;2.83;2.00;;;;;;;15.93;72.38;93406.63;5090518;28;20054;-43
2021/06/11 06:16:26;;;;;;;3.85;3.03;;;;;;;16.10;71.86;93411.31;5090854;28;20077;-44
2021/06/11 06:18:52;;;;;;;4.20;3.00;;;;;;;16.14;72.48;93409.56;5090266;28;20027;-44
2021/06/11 06:21:17;;;;;;;5.03;3.08;;;;;;;16.10;72.51;93411.31;5090831;28;20085;-45
2021/06/11 06:23:43;;;;;;;2.80;2.47;;;;;;;16.04;72.77;93397.69;5089470;28;20020;-42
2021/06/11 06:26:08;;;;;;;5.90;3.70;;;;;;;16.27;72.60;93408.38;5090854;28;20040;-43
2021/06/11 06:28:34;;;;;;;3.45;2.20;;;;;;;16.38;72.39;93413.34;5090591;28;20020;-42
2021/06/11 06:30:59;;;;;;;2.22;2.03;;;;;;;16.43;72.06;93396.34;5075072;28;20028;-43
2021/06/11 06:33:25;;;;;;;2.63;2.30;;;;;;;16.64;71.26;93404.13;5090284;28;20565;-44
2021/06/11 06:35:50;;;;;;;3.60;2.53;;;;;;;16.67;70.86;93397.38;5082929;28;20474;-43
2021/06/11 06:38:15;;;;;;;2.33;2.13;;;;;;;16.79;70.48;93403.03;5069820;28;20425;-43
2021/06/11 06:40:42;;;;;;;3.42;3.08;;;;;;;16.88;71.22;93393.94;5069782;28;20051;-42
2021/06/11 06:43:08;;;;;;;4.43;3.00;;;;;;;17.00;71.83;93414.31;5069609;28;20484;-44
2021/06/11 06:45:33;;;;;;;3.60;2.65;;;;;;;17.14;71.01;93416.03;5069540;28;20029;-42
2021/06/11 06:48:00;;;;;;;3.35;2.50;;;;;;;17.10;71.25;93412.94;5069616;28;20032;-43
2021/06/11 06:50:26;;;;;;;4.53;2.33;;;;;;;17.26;69.49;93408.47;5068490;28;20099;-42
2021/06/11 06:52:54;;;;;;;1.98;1.85;;;;;;;17.32;69.65;93408.16;5069801;28;20166;-43
2021/06/11 06:55:20;;;;;;;2.55;2.35;;;;;;;17.23;69.36;93401.31;5071418;28;20092;-42
2021/06/11 06:57:45;;;;;;;3.35;2.63;;;;;;;17.27;70.92;93414.78;5084032;28;20036;-44
2021/06/11 07:00:11;;;;;;;2.35;2.15;;;;;;;17.23;71.07;93404.09;5073846;28;20063;-43
2021/06/11 07:02:37;;;;;;;3.50;3.10;;;;;;;17.29;71.37;93400.97;5069064;28;20025;-43
2021/06/11 07:05:03;;;;;;;3.78;2.83;;;;;;;17.13;71.28;93405.47;5069524;28;20459;-41
2021/06/11 07:07:29;;;;;;;3.35;2.40;;;;;;;17.21;72.28;93397.63;5069375;28;20028;-47
2021/06/11 07:09:54;;;;;;;2.97;2.50;;;;;;;17.37;73.26;93393.88;5069572;28;20074;-47
2021/06/11 07:12:20;;;;;;;5.88;2.17;;;;;;;17.43;71.74;93397.06;5069183;28;20509;-50
2021/06/11 07:14:45;;;;;;;4.15;2.38;;;;;;;17.51;72.03;93393.41;5069403;28;20028;-47
2021/06/11 07:17:11;;;;;;;3.72;2.60;;;;;;;17.64;70.71;93393.63;5069014;28;20016;-46
2021/06/11 07:19:36;;;;;;;3.25;2.20;;;;;;;18.04;71.58;93384.41;5068135;28;20020;-50
2021/06/11 07:22:06;;;;;;;3.08;2.00;;;;;;;18.53;69.18;93382.69;5069151;28;20028;-48
2021/06/11 07:24:33;;;;;;;3.20;2.70;;;;;;;18.86;66.72;93389.72;5069387;28;20098;-46
2021/06/11 07:26:58;;;;;;;5.40;2.88;;;;;;;19.40;66.24;93381.19;5069182;28;20489;-44
2021/06/11 07:29:24;;;;;;;3.28;2.97;;;;;;;19.71;64.16;93364.09;5069458;28;20035;-45
2021/06/11 07:31:49;;;;;;;4.97;1.90;;;;;;;20.54;61.79;93372.41;5089346;28;20032;-47
2021/06/11 07:34:15;;;;;;;2.60;2.40;;;;;;;21.57;60.40;93372.41;5089459;28;20027;-47
2021/06/11 07:36:40;;;;;;;3.38;2.03;;;;;;;22.91;55.47;93363.66;5073947;28;20032;-50
2021/06/11 07:39:05;;;;;;;2.30;2.10;;;;;;;24.05;51.44;93363.22;5079798;28;20108;-47
2021/06/11 07:41:31;;;;;;;1.88;1.67;;;;;;;25.31;47.93;93369.78;5080727;28;20043;-46
2021/06/11 07:43:56;;;;;;;2.83;1.60;;;;;;;26.48;44.94;93362.72;5080155;28;20409;-47
2021/06/11 07:46:22;;;;;;;1.83;1.60;;;;;;;27.77;43.19;93373.22;5080419;28;20028;-45
2021/06/11 07:48:49;;;;;;;2.08;1.60;;;;;;;28.93;39.99;93365.69;5078589;28;20405;-46
2021/06/11 07:51:14;;;;;;;1.58;1.48;;;;;;;29.62;37.43;93359.50;5074290;28;20031;-49
2021/06/11 07:53:41;;;;;;;2.17;1.33;;;;;;;30.23;36.80;93367.91;5069184;28;20024;-46
2021/06/11 07:56:08;;;;;;;1.77;1.58;;;;;;;30.92;35.54;93352.09;5076812;28;20048;-38
2021/06/11 07:58:33;;;;;;;1.30;1.20;;;;;;;31.68;34.38;93367.56;5068807;28;20319;-39
2021/06/11 08:00:59;;;;;;;1.35;1.00;;;;;;;32.27;34.08;93360.47;5086280;28;20082;-43
2021/06/11 08:03:24;;;;;;;1.58;1.02;;;;;;;32.90;31.96;93359.00;5081145;28;20025;-41
2021/06/11 08:05:50;;;;;;;1.60;1.50;;;;;;;32.33;30.33;93360.56;5071327;28;20405;-39
2021/06/11 08:08:15;;;;;;;1.67;1.27;;;;;;;32.11;31.46;93357.44;5085813;28;20484;-38
2021/06/11 08:10:41;;;;;;;1.88;1.63;;;;;;;32.04;31.89;93353.06;5085194;28;20517;-41
2021/06/11 08:13:07;;;;;;;1.55;1.45;;;;;;;31.65;32.64;93362.50;5086937;28;20032;-41
2021/06/11 08:15:33;;;;;;;2.55;1.48;;;;;;;31.12;33.33;93352.44;5084586;28;20558;-43
2021/06/11 08:17:59;;;;;;;2.42;1.30;;;;;;;30.75;32.79;93356.78;5066982;28;20036;-41
2021/06/11 08:20:25;;;;;;;1.50;1.25;;;;;;;30.60;33.78;93355.09;5071518;28;20038;-43
2021/06/11 08:22:50;;;;;;;2.00;1.35;;;;;;;30.05;33.78;93359.00;5073634;28;20017;-39
2021/06/11 08:25:16;;;;;;;2.30;1.60;;;;;;;29.44;35.06;93342.75;5066677;28;20043;-41
2021/06/11 08:27:42;;;;;;;1.98;1.40;;;;;;;28.76;35.20;93349.66;5074125;28;20113;-41
2021/06/11 08:30:09;;;;;;;2.35;1.85;;;;;;;28.50;36.50;93341.16;5073902;28;20782;-39
2021/06/11 08:32:36;;;;;;;2.53;1.90;;;;;;;28.44;37.08;93344.56;5066106;28;20528;-41
2021/06/11 08:35:01;;;;;;;2.05;1.70;;;;;;;29.31;35.50;93355.25;5069124;28;20115;-40
2021/06/11 08:37:27;;;;;;;1.73;1.30;;;;;;;30.02;33.85;93357.50;5076651;28;20016;-40
2021/06/11 08:39:53;;;;;;;1.88;1.65;;;;;;;29.94;33.96;93349.53;5068300;28;20095;-40
2021/06/11 08:42:31;;;;;;;1.23;1.13;;;;;;;30.18;34.69;93354.25;5066673;28;20043;-40
2021/06/11 08:45:02;;;;;;;1.50;1.40;;;;;;;30.18;33.30;93355.00;5066372;28;20029;-43
2021/06/11 08:47:28;;;;;;;1.38;1.27;;;;;;;29.90;34.03;93343.78;5075292;28;20115;-41
2021/06/11 08:49:55;;;;;;;2.05;1.73;;;;;;;29.49;34.54;93335.75;5070615;28;20031;-41
2021/06/11 08:52:21;;;;;;;1.90;1.58;;;;;;;29.78;34.25;93328.53;5086108;28;20528;-39
2021/06/11 08:54:47;;;;;;;1.45;1.35;;;;;;;30.30;33.64;93326.03;5080011;28;20027;-40
2021/06/11 08:57:14;;;;;;;1.30;1.20;;;;;;;30.39;32.83;93325.50;5085266;28;20037;-40
2021/06/11 08:59:40;;;;;;;1.83;1.70;;;;;;;31.31;31.87;93322.78;5065092;28;20025;-42
2021/06/11 09:02:05;;;;;;;1.55;1.45;;;;;;;32.01;30.58;93317.34;5074017;28;20035;-39
2021/06/11 09:05:02;;;;;;;1.70;1.42;;;;;;;32.84;29.27;93318.94;5081133;28;20584;-41
2021/06/11 09:07:29;;;;;;;2.95;1.70;;;;;;;33.38;27.70;93318.66;5088168;28;20440;-41
2021/06/11 09:10:00;;;;;;;1.42;1.33;;;;;;;33.38;27.72;93322.25;5088552;28;20123;-40
2021/06/11 09:12:35;;;;;;;5.25;2.42;;;;;;;34.02;28.00;93313.34;5088313;28;20035;-41
2021/06/11 09:15:07;;;;;;;1.30;1.20;;;;;;;34.19;25.82;93317.72;5088516;28;20031;-40
2021/06/11 09:17:36;;;;;;;2.08;1.45;;;;;;;32.60;28.01;93315.84;5088485;28;20044;-42
2021/06/11 09:20:04;;;;;;;4.10;1.70;;;;;;;31.43;30.32;93322.97;5083481;28;20024;-40
2021/06/11 09:22:37;;;;;;;;;;;;;;;31.18;32.02;93329.72;5068952;28;20016;-40
2021/06/11 09:25:24;;;;;;;3.17;1.90;;;;;;;30.61;31.73;93333.72;5068056;28;19916;-40
2021/06/11 09:27:51;;;;;;;2.43;1.90;;;;;;;30.34;31.69;93326.81;5068257;28;20466;-40
2021/06/11 09:30:17;;;;;;;1.73;1.63;;;;;;;31.45;30.62;93342.25;5071692;28;20409;-41
2021/06/11 09:32:53;;;;;;;1.98;1.35;;;;;;;31.90;30.74;93327.19;5071865;28;20028;-42
2021/06/11 09:35:27;;;;;;;1.52;1.23;;;;;;;32.22;29.60;93332.56;5074008;28;20024;-42
2021/06/11 09:38:06;;;;;;;2.15;1.50;;;;;;;32.81;27.30;93335.34;5092227;28;20008;-42
2021/06/11 09:40:32;;;;;;;2.20;1.65;;;;;;;33.61;27.94;93329.56;5077047;28;20036;-43
2021/06/11 09:43:01;;;;;;;1.02;1.00;;;;;;;33.68;26.03;93336.03;5086195;28;20500;-44
2021/06/11 09:45:26;;;;;;;1.55;1.45;;;;;;;32.43;27.55;93346.38;5073317;28;20033;-43
2021/06/11 09:47:52;;;;;;;1.67;1.58;;;;;;;32.13;29.31;93335.34;5083501;28;20432;-43
2021/06/11 09:50:19;;;;;;;3.08;1.30;;;;;;;32.72;27.24;93328.13;5091371;28;20036;-41
2021/06/11 09:53:01;;;;;;;4.18;1.70;;;;;;;31.88;28.93;93330.72;5091948;28;20028;-41
2021/06/11 09:55:40;;;;;;;1.52;1.38;;;;;;;30.37;30.79;93324.75;5075864;28;20085;-41
2021/06/11 09:58:08;;;;;;;1.90;1.80;;;;;;;29.02;33.15;93328.25;5071013;28;20047;-39
2021/06/11 10:00:36;;;;;;;1.65;1.33;;;;;;;28.39;34.65;93331.63;5088836;28;20046;-41
2021/06/11 10:03:01;;;;;;;1.38;1.25;;;;;;;27.69;34.89;93329.69;5091166;28;20024;-44
2021/06/11 10:05:30;;;;;;;1.92;1.70;;;;;;;27.24;37.27;93335.41;5090994;28;20569;-45
2021/06/11 10:07:55;;;;;;;1.45;1.35;;;;;;;26.81;36.59;93331.25;5091475;28;20036;-45
2021/06/11 10:10:21;;;;;;;1.80;1.55;;;;;;;26.11;38.19;93335.28;5090926;28;20413;-42
2021/06/11 10:12:48;;;;;;;5.30;1.92;;;;;;;25.52;39.60;93320.41;5091051;28;20485;-44
2021/06/11 10:15:15;;;;;;;2.38;2.15;;;;;;;25.12;40.13;93333.00;5091270;28;20044;-43
2021/06/11 10:17:43;;;;;;;2.10;1.90;;;;;;;25.03;42.05;93351.75;5091203;28;20593;-44
2021/06/11 10:20:13;;;;;;;2.53;2.33;;;;;;;24.63;43.53;93352.91;5091412;28;20420;-42
2021/06/11 10:22:39;;;;;;;4.70;2.70;;;;;;;24.25;45.40;93360.53;5091167;28;20032;-44
2021/06/11 10:25:08;;;;;;;3.67;2.63;;;;;;;24.14;45.36;93352.28;5091015;28;20052;-44
2021/06/11 10:27:35;;;;;;;1.85;1.75;;;;;;;23.89;46.06;93347.66;5090854;28;20024;-47
2021/06/11 10:30:01;;;;;;;3.97;2.78;;;;;;;23.53;48.44;93341.19;5089332;28;20031;-45
2021/06/11 10:32:26;;;;;;;2.58;2.33;;;;;;;23.25;48.95;93343.44;5089696;28;20040;-42
2021/06/11 10:34:53;;;;;;;6.03;3.75;;;;;;;23.21;50.26;93332.00;5089529;28;20043;-45
2021/06/11 10:37:33;;;;;;;2.92;2.55;;;;;;;23.16;50.89;93330.34;5090242;28;20028;-43
2021/06/11 10:40:22;;;;;;;4.53;2.83;;;;;;;23.05;51.99;93331.25;5090188;28;20059;-43
2021/06/11 10:42:49;;;;;;;2.22;2.03;;;;;;;23.16;51.30;93324.72;5086278;28;20031;-44
2021/06/11 10:45:42;;;;;;;2.78;2.15;;;;;;;23.47;49.07;93312.00;5090517;28;20050;-45
2021/06/11 10:48:07;;;;;;;2.22;1.75;;;;;;;23.82;46.93;93324.13;5090395;28;20126;-47
2021/06/11 10:50:35;;;;;;;2.70;1.83;;;;;;;24.20;46.85;93316.59;5090267;28;20020;-46
2021/06/11 10:53:29;;;;;;;3.10;2.00;;;;;;;24.57;45.42;93322.34;5090226;28;20024;-45
2021/06/11 10:56:15;;;;;;;2.55;1.90;;;;;;;24.82;44.43;93319.13;5069368;28;20088;-45
2021/06/11 10:58:43;;;;;;;1.92;1.80;;;;;;;25.14;42.08;93321.78;5070402;28;20032;-46
2021/06/11 11:01:22;;;;;;;1.85;1.58;;;;;;;25.50;41.17;93311.84;5070129;28;20103;-43
2021/06/11 11:03:48;;;;;;;2.72;1.73;;;;;;;25.52;39.77;93298.50;5070354;28;20034;-47
2021/06/11 11:06:35;;;;;;;1.45;1.35;;;;;;;25.73;40.78;93310.56;5070026;28;20025;-43
2021/06/11 11:09:04;;;;;;;1.65;1.52;;;;;;;25.79;40.18;93302.28;5070103;28;20033;-39
2021/06/11 11:11:30;;;;;;;;;;;;;;;26.20;39.24;93305.16;5070533;28;20032;-41
2021/06/11 11:13:56;;;;;;;2.70;1.95;;;;;;;26.85;39.38;93308.75;5069796;28;20006;-42
2021/06/11 11:16:24;;;;;;;2.28;1.77;;;;;;;27.63;37.89;93301.88;5070053;28;20036;-40
2021/06/11 11:18:50;;;;;;;2.00;1.57;;;;;;;27.68;35.85;93300.59;5069829;28;20498;-41
2021/06/11 11:21:30;;;;;;;1.48;1.30;;;;;;;27.95;36.06;93304.88;5070062;28;20031;-41
2021/06/11 11:24:01;;;;;;;3.00;1.77;;;;;;;27.91;36.04;93304.06;5069603;28;20029;-40
2021/06/11 11:26:45;;;;;;;2.40;1.73;;;;;;;27.42;38.68;93311.19;5069607;28;20737;-39
2021/06/11 11:29:12;;;;;;;3.75;2.45;;;;;;;26.93;38.82;93311.09;5070072;28;20086;-41
2021/06/11 11:31:39;;;;;;;5.15;2.80;;;;;;;26.35;40.64;93326.91;5069859;28;20119;-39
2021/06/11 11:34:05;;;;;;;3.38;2.17;;;;;;;25.81;40.80;93320.06;5069722;28;20471;-40
2021/06/11 11:36:32;;;;;;;2.67;2.45;;;;;;;25.42;42.36;93323.59;5081911;28;20020;-46